Time;durP1;ratioP1;P1;durP2;ratioP2;P2;SDS_P1;SDS_P2;PMS_P1;PMS_P2;Temp;Humidity;BMP_temperature;BMP_pressure;BME280_temperature;BME280_humidity;BME280_pressure;Samples;Min_cycle;Max_cycle;Signal;HPM_P1;HPM_P2
2023/08/01 00:02:23;;;;;;;6.80;5.65;;;18.20;99.90;;;;;;4997222;28;20030;-51
2023/08/01 00:05:09;;;;;;;8.45;6.40;;;18.20;99.90;;;;;;5011472;28;20022;-47
2023/08/01 00:07:55;;;;;;;10.15;5.78;;;18.10;99.90;;;;;;5010985;28;20060;-53
2023/08/01 00:10:41;;;;;;;8.75;5.90;;;18.20;99.90;;;;;;5011234;28;20565;-50
2023/08/01 00:13:27;;;;;;;9.77;6.00;;;18.20;99.90;;;;;;5011220;28;20040;-54
2023/08/01 00:16:13;;;;;;;8.07;6.00;;;18.20;99.90;;;;;;4991690;28;20038;-47
2023/08/01 00:18:59;;;;;;;7.50;5.75;;;18.20;99.90;;;;;;4994953;28;20554;-48
2023/08/01 00:21:45;;;;;;;6.90;5.65;;;18.20;99.90;;;;;;5011040;28;20505;-49
2023/08/01 00:24:31;;;;;;;10.50;6.22;;;18.10;99.90;;;;;;5010624;28;20410;-47
2023/08/01 00:27:17;;;;;;;7.63;5.22;;;18.20;99.90;;;;;;5010827;28;20413;-51
2023/08/01 00:30:03;;;;;;;7.53;5.03;;;18.20;99.90;;;;;;4996522;28;20406;-51
2023/08/01 00:32:49;;;;;;;7.40;4.88;;;18.10;99.90;;;;;;5009889;28;20038;-51
2023/08/01 00:35:35;;;;;;;7.22;5.22;;;18.10;99.90;;;;;;5011296;28;20053;-54
2023/08/01 00:38:21;;;;;;;7.13;4.60;;;18.00;99.90;;;;;;5010510;28;20066;-47
2023/08/01 00:41:07;;;;;;;5.60;4.90;;;18.00;99.90;;;;;;5010820;28;20029;-51
2023/08/01 00:43:55;;;;;;;6.55;4.68;;;17.90;99.90;;;;;;5010880;28;20092;-48
2023/08/01 00:46:41;;;;;;;6.22;5.00;;;17.90;99.90;;;;;;5011065;28;20022;-50
2023/08/01 00:49:27;;;;;;;7.97;4.60;;;17.90;99.90;;;;;;4995859;28;20061;-47
2023/08/01 00:52:13;;;;;;;7.03;4.93;;;17.90;99.90;;;;;;5010891;28;20022;-50
2023/08/01 00:55:00;;;;;;;6.72;4.30;;;18.00;99.90;;;;;;5010411;28;20425;-49
2023/08/01 00:57:46;;;;;;;8.00;4.53;;;18.00;99.90;;;;;;5009826;28;20030;-48
2023/08/01 01:00:33;;;;;;;5.20;4.30;;;18.00;99.90;;;;;;5010238;28;20399;-47
2023/08/01 01:03:19;;;;;;;7.07;4.10;;;18.10;99.90;;;;;;5008437;28;20022;-50
2023/08/01 01:06:11;;;;;;;5.78;4.18;;;18.10;99.90;;;;;;5007817;28;20060;-48
2023/08/01 01:08:57;;;;;;;6.07;4.38;;;18.20;99.90;;;;;;5010384;28;20085;-54
2023/08/01 01:11:44;;;;;;;6.15;4.38;;;18.20;99.90;;;;;;5008052;28;20030;-52
2023/08/01 01:14:30;;;;;;;6.63;3.90;;;18.10;99.90;;;;;;5012226;28;20029;-51
2023/08/01 01:17:16;;;;;;;5.10;4.28;;;18.10;99.90;;;;;;5013319;28;20029;-50
2023/08/01 01:20:02;;;;;;;5.45;3.80;;;18.10;99.90;;;;;;5003907;28;20026;-48
2023/08/01 01:22:50;;;;;;;6.15;4.03;;;18.10;99.90;;;;;;5011860;28;20026;-51
2023/08/01 01:25:38;;;;;;;5.32;3.75;;;18.10;99.90;;;;;;5013707;28;20065;-52
2023/08/01 01:28:25;;;;;;;4.85;4.20;;;18.20;99.90;;;;;;5011119;28;20022;-57
2023/08/01 01:31:11;;;;;;;4.45;3.95;;;18.20;99.90;;;;;;5014340;28;20029;-50
2023/08/01 01:34:00;;;;;;;5.40;4.10;;;18.20;99.90;;;;;;5012980;28;20080;-53
2023/08/01 01:36:46;;;;;;;4.95;3.72;;;18.10;99.90;;;;;;5008421;28;20567;-55
2023/08/01 01:39:32;;;;;;;6.55;4.30;;;18.10;99.90;;;;;;5012265;28;20024;-55
2023/08/01 01:42:18;;;;;;;6.32;4.30;;;18.00;99.90;;;;;;5012412;28;20026;-49
2023/08/01 01:45:05;;;;;;;4.38;3.75;;;18.00;99.90;;;;;;5010582;28;20025;-52
2023/08/01 01:47:51;;;;;;;5.85;4.10;;;17.90;99.90;;;;;;5011260;28;20034;-50
2023/08/01 01:50:37;;;;;;;5.80;4.78;;;17.90;99.90;;;;;;4993986;28;20104;-47
2023/08/01 01:53:23;;;;;;;5.68;4.00;;;18.00;99.90;;;;;;4994748;28;20030;-50
2023/08/01 01:56:09;;;;;;;5.25;4.10;;;17.90;99.90;;;;;;4994546;28;20495;-51
2023/08/01 01:58:55;;;;;;;5.68;4.28;;;17.90;99.90;;;;;;4979792;28;20571;-53
2023/08/01 02:01:41;;;;;;;5.55;4.50;;;17.90;99.90;;;;;;4995092;28;20555;-49
2023/08/01 02:04:27;;;;;;;7.25;4.93;;;17.90;99.90;;;;;;4994352;28;20038;-49
2023/08/01 02:07:14;;;;;;;6.55;4.65;;;17.90;99.90;;;;;;4993204;28;20105;-49
2023/08/01 02:10:00;;;;;;;5.82;4.43;;;17.90;99.90;;;;;;4993694;28;20072;-49
2023/08/01 02:12:46;;;;;;;6.50;4.80;;;17.90;99.90;;;;;;4994485;28;20711;-55
2023/08/01 02:15:32;;;;;;;6.30;4.50;;;17.90;99.90;;;;;;4980166;28;20121;-50
2023/08/01 02:18:18;;;;;;;5.25;4.50;;;17.90;99.90;;;;;;4994298;28;20026;-48
2023/08/01 02:21:04;;;;;;;5.57;4.55;;;17.90;99.90;;;;;;4993443;28;20019;-53
2023/08/01 02:23:50;;;;;;;6.65;5.00;;;17.90;99.90;;;;;;4993853;28;20022;-47
2023/08/01 02:26:36;;;;;;;5.47;4.93;;;17.90;99.90;;;;;;4993029;28;20085;-51
2023/08/01 02:29:22;;;;;;;6.25;4.85;;;17.80;99.90;;;;;;4993773;28;20031;-50
2023/08/01 02:32:08;;;;;;;6.07;4.57;;;17.80;99.90;;;;;;4993781;28;20105;-49
2023/08/01 02:34:54;;;;;;;6.97;4.88;;;17.70;99.90;;;;;;4992864;28;20499;-50
2023/08/01 02:37:39;;;;;;;5.88;4.75;;;17.70;99.90;;;;;;4993467;28;20503;-46
2023/08/01 02:40:26;;;;;;;6.47;5.28;;;17.70;99.90;;;;;;4993535;28;20070;-47
2023/08/01 02:43:12;;;;;;;6.63;5.03;;;17.60;99.90;;;;;;4993272;28;20030;-51
2023/08/01 02:46:00;;;;;;;7.40;5.15;;;17.70;99.90;;;;;;4992214;28;20503;-54
2023/08/01 02:48:46;;;;;;;6.93;5.00;;;17.70;99.90;;;;;;4991949;28;20038;-47
2023/08/01 02:51:32;;;;;;;10.10;5.57;;;17.70;99.90;;;;;;4993960;28;20030;-49
2023/08/01 02:54:18;;;;;;;5.72;4.57;;;17.70;99.90;;;;;;4993966;28;20066;-50
2023/08/01 02:57:04;;;;;;;6.32;5.03;;;17.70;99.90;;;;;;4992646;28;20031;-56
2023/08/01 02:59:50;;;;;;;7.60;5.38;;;17.70;99.90;;;;;;4993031;28;20167;-55
2023/08/01 03:02:36;;;;;;;7.20;5.53;;;17.70;99.90;;;;;;4993701;28;20027;-53
2023/08/01 03:05:22;;;;;;;7.93;6.15;;;17.70;99.90;;;;;;4993889;28;20026;-55
2023/08/01 03:08:07;;;;;;;6.93;5.00;;;17.70;99.90;;;;;;4992645;28;20066;-56
2023/08/01 03:10:54;;;;;;;7.50;4.78;;;17.70;99.90;;;;;;4992783;28;20123;-55
2023/08/01 03:13:40;;;;;;;5.97;4.97;;;17.70;99.90;;;;;;4992090;28;20029;-57
2023/08/01 03:16:26;;;;;;;6.15;4.78;;;17.70;99.90;;;;;;4991904;28;20495;-53
2023/08/01 03:19:13;;;;;;;5.95;4.57;;;17.70;99.90;;;;;;4992946;28;20038;-51
2023/08/01 03:22:00;;;;;;;5.95;5.03;;;17.80;99.90;;;;;;4992388;28;20062;-53
2023/08/01 03:24:46;;;;;;;5.70;4.47;;;17.80;99.90;;;;;;4992768;28;20031;-49
2023/08/01 03:27:33;;;;;;;8.77;6.38;;;17.80;99.90;;;;;;4990918;28;20030;-51
2023/08/01 03:30:20;;;;;;;7.45;5.20;;;17.80;99.90;;;;;;4992117;28;20089;-55
2023/08/01 03:33:06;;;;;;;8.18;5.18;;;17.80;99.90;;;;;;4991435;28;20038;-52
2023/08/01 03:35:52;;;;;;;6.35;4.65;;;17.80;99.90;;;;;;4991423;28;20038;-52
2023/08/01 03:38:38;;;;;;;6.10;5.05;;;17.90;99.90;;;;;;4991796;28;20038;-55
2023/08/01 03:41:24;;;;;;;6.60;4.82;;;18.00;99.90;;;;;;4977353;28;20022;-51
2023/08/01 03:44:10;;;;;;;7.35;4.63;;;17.90;99.90;;;;;;4991587;28;20065;-54
2023/08/01 03:46:56;;;;;;;5.75;4.22;;;17.90;99.90;;;;;;4991734;28;20030;-53
2023/08/01 03:49:42;;;;;;;8.05;4.75;;;17.90;99.90;;;;;;4992407;28;20034;-52
2023/08/01 03:52:28;;;;;;;7.70;4.35;;;17.90;99.90;;;;;;4991096;28;20034;-54
2023/08/01 03:55:14;;;;;;;5.43;4.40;;;17.90;99.90;;;;;;4993223;28;20026;-52
2023/08/01 03:58:00;;;;;;;6.50;4.38;;;17.90;99.90;;;;;;5011328;28;20041;-54
2023/08/01 04:00:46;;;;;;;6.07;4.10;;;17.90;99.90;;;;;;5011116;28;20033;-51
2023/08/01 04:03:32;;;;;;;5.60;4.30;;;17.90;99.90;;;;;;5012730;28;20406;-52
2023/08/01 04:06:18;;;;;;;6.25;4.18;;;17.90;99.90;;;;;;5011599;28;20510;-55
2023/08/01 04:09:06;;;;;;;5.03;4.35;;;17.90;99.90;;;;;;5011695;28;20088;-51
2023/08/01 04:11:52;;;;;;;7.03;4.30;;;17.90;99.90;;;;;;5011294;28;20502;-54
2023/08/01 04:14:38;;;;;;;6.22;4.10;;;18.00;99.90;;;;;;5013189;28;20415;-53
2023/08/01 04:17:24;;;;;;;5.00;3.92;;;18.00;99.90;;;;;;5010995;28;20092;-54
2023/08/01 04:20:10;;;;;;;6.43;3.95;;;18.00;99.90;;;;;;4997649;28;20041;-51
2023/08/01 04:22:56;;;;;;;4.95;4.15;;;18.00;99.90;;;;;;5011123;28;20406;-53
2023/08/01 04:25:42;;;;;;;5.88;4.47;;;18.00;99.90;;;;;;5010699;28;20030;-55
2023/08/01 04:28:28;;;;;;;5.80;4.32;;;18.00;99.90;;;;;;5011133;28;20037;-53
2023/08/01 04:31:15;;;;;;;5.18;4.10;;;18.00;99.90;;;;;;5011499;28;20030;-54
2023/08/01 04:34:00;;;;;;;5.35;4.35;;;18.00;99.90;;;;;;5011144;28;20022;-50
2023/08/01 04:36:46;;;;;;;6.95;4.00;;;17.90;99.90;;;;;;5011950;28;20054;-51
2023/08/01 04:39:32;;;;;;;6.72;4.45;;;17.90;99.90;;;;;;5011545;28;20022;-55
2023/08/01 04:42:18;;;;;;;4.57;3.45;;;17.90;99.90;;;;;;5009244;28;20406;-54
2023/08/01 04:45:06;;;;;;;5.68;4.35;;;17.90;99.90;;;;;;4997302;28;20033;-53
2023/08/01 04:47:52;;;;;;;5.82;3.80;;;17.90;99.90;;;;;;5011304;28;20450;-51
2023/08/01 04:50:38;;;;;;;5.13;3.65;;;17.80;99.90;;;;;;5015192;28;20026;-57
2023/08/01 04:53:24;;;;;;;4.57;3.35;;;17.80;99.90;;;;;;5015200;28;20057;-55
2023/08/01 04:56:10;;;;;;;4.43;3.40;;;17.80;99.90;;;;;;5014668;28;20112;-53
2023/08/01 04:58:56;;;;;;;6.15;3.53;;;17.80;99.90;;;;;;5014874;28;20030;-51
2023/08/01 05:01:42;;;;;;;5.78;3.95;;;17.80;99.90;;;;;;5015461;28;20095;-56
2023/08/01 05:04:28;;;;;;;4.10;3.42;;;17.80;99.90;;;;;;5014521;28;20022;-52
2023/08/01 05:07:14;;;;;;;4.78;3.42;;;17.80;99.90;;;;;;5014545;28;20641;-54
2023/08/01 05:10:00;;;;;;;4.95;3.70;;;17.80;99.90;;;;;;5015185;28;20034;-57
2023/08/01 05:12:45;;;;;;;4.75;3.28;;;17.80;99.90;;;;;;5015414;28;20022;-57
2023/08/01 05:15:31;;;;;;;6.05;3.03;;;17.80;99.90;;;;;;4986687;28;20115;-56
2023/08/01 05:18:17;;;;;;;7.80;3.05;;;17.80;99.90;;;;;;5014429;28;20083;-53
2023/08/01 05:21:03;;;;;;;3.55;2.95;;;17.80;99.90;;;;;;5014611;28;20018;-54
2023/08/01 05:23:50;;;;;;;3.88;2.70;;;17.70;99.90;;;;;;5014393;28;20049;-56
2023/08/01 05:26:36;;;;;;;3.92;3.00;;;17.60;99.90;;;;;;5013577;28;20030;-52
2023/08/01 05:29:22;;;;;;;5.13;2.80;;;17.60;99.90;;;;;;5014396;28;20060;-52
2023/08/01 05:32:08;;;;;;;3.92;2.83;;;17.60;99.90;;;;;;5014513;28;20030;-50
2023/08/01 05:34:54;;;;;;;5.45;2.45;;;17.70;99.90;;;;;;5013939;28;20514;-56
2023/08/01 05:37:40;;;;;;;5.10;2.72;;;17.60;99.90;;;;;;5014488;28;20486;-54
2023/08/01 05:40:26;;;;;;;2.65;2.30;;;17.60;99.90;;;;;;5014256;28;20026;-55
2023/08/01 05:43:12;;;;;;;5.10;2.50;;;17.70;99.90;;;;;;5014303;28;20038;-54
2023/08/01 05:45:58;;;;;;;8.10;3.33;;;17.70;99.90;;;;;;4999287;28;20037;-53
2023/08/01 05:48:44;;;;;;;3.40;2.50;;;17.60;99.90;;;;;;5013556;28;20129;-56
2023/08/01 05:51:30;;;;;;;4.70;2.60;;;17.70;99.90;;;;;;5014919;28;20414;-53
2023/08/01 05:54:16;;;;;;;4.43;2.33;;;17.60;99.90;;;;;;5014544;28;20061;-54
2023/08/01 05:57:02;;;;;;;4.32;2.50;;;17.60;99.90;;;;;;5014711;28;20528;-57
2023/08/01 05:59:48;;;;;;;3.63;2.40;;;17.50;99.90;;;;;;5012243;28;20056;-54
2023/08/01 06:02:34;;;;;;;3.65;2.47;;;17.50;99.90;;;;;;5013786;28;20026;-55
2023/08/01 06:05:20;;;;;;;4.82;2.50;;;17.50;99.90;;;;;;5013909;28;20560;-54
2023/08/01 06:08:08;;;;;;;4.50;2.50;;;17.50;99.90;;;;;;5014222;28;20499;-54
2023/08/01 06:10:53;;;;;;;5.90;3.05;;;17.50;99.90;;;;;;5013489;28;20041;-56
2023/08/01 06:13:40;;;;;;;4.22;2.22;;;17.50;99.90;;;;;;5014275;28;20037;-57
2023/08/01 06:16:25;;;;;;;3.22;2.30;;;17.60;99.90;;;;;;5013318;28;20030;-57
2023/08/01 06:19:11;;;;;;;5.95;2.35;;;17.70;99.90;;;;;;5013705;28;20044;-56
2023/08/01 06:21:57;;;;;;;5.35;1.98;;;17.70;99.90;;;;;;5012960;28;20026;-52
2023/08/01 06:24:43;;;;;;;2.90;2.13;;;17.70;99.90;;;;;;5013214;28;20037;-55
2023/08/01 06:27:29;;;;;;;3.17;2.42;;;17.70;99.90;;;;;;5013127;28;20033;-53
2023/08/01 06:30:15;;;;;;;3.00;2.30;;;17.70;99.90;;;;;;5013418;28;20038;-52
2023/08/01 06:33:01;;;;;;;4.28;2.15;;;17.80;99.90;;;;;;5013339;28;20083;-52
2023/08/01 06:35:47;;;;;;;3.53;2.00;;;17.70;99.90;;;;;;4999239;28;20557;-55
2023/08/01 06:38:33;;;;;;;2.17;1.75;;;17.70;99.90;;;;;;5013450;28;20108;-53
2023/08/01 06:41:19;;;;;;;2.40;2.15;;;17.70;99.90;;;;;;5012914;28;20034;-53
2023/08/01 06:44:05;;;;;;;3.42;2.03;;;17.70;99.90;;;;;;4998771;28;20105;-52
2023/08/01 06:46:51;;;;;;;2.30;1.90;;;17.70;99.90;;;;;;5013049;28;20045;-56
2023/08/01 06:49:37;;;;;;;3.90;2.00;;;17.60;99.90;;;;;;5013192;28;20045;-54
2023/08/01 06:52:22;;;;;;;3.00;1.70;;;17.60;99.90;;;;;;5013621;28;20025;-58
2023/08/01 06:55:08;;;;;;;2.10;1.67;;;17.60;99.90;;;;;;5013122;28;20375;-49
2023/08/01 06:57:55;;;;;;;3.05;2.15;;;17.60;99.90;;;;;;5012450;28;20062;-52
2023/08/01 07:00:41;;;;;;;1.98;1.73;;;17.50;99.90;;;;;;5012806;28;20026;-55
2023/08/01 07:03:27;;;;;;;4.32;1.70;;;17.50;99.90;;;;;;4998546;28;20030;-54
2023/08/01 07:06:12;;;;;;;5.97;2.13;;;17.50;99.90;;;;;;5012328;28;20060;-56
2023/08/01 07:08:59;;;;;;;2.97;2.17;;;17.50;99.90;;;;;;5011917;28;20503;-55
2023/08/01 07:11:45;;;;;;;2.45;1.80;;;17.50;99.90;;;;;;5012065;28;20026;-52
2023/08/01 07:14:31;;;;;;;2.85;1.80;;;17.40;99.90;;;;;;5012024;28;20030;-57
2023/08/01 07:17:17;;;;;;;2.83;2.00;;;17.40;99.90;;;;;;5016651;28;20117;-51
2023/08/01 07:20:03;;;;;;;2.55;2.08;;;17.50;99.90;;;;;;5013779;28;20537;-56
2023/08/01 07:22:49;;;;;;;2.45;1.80;;;17.50;99.90;;;;;;5011224;28;20524;-54
2023/08/01 07:25:35;;;;;;;3.65;1.90;;;17.60;99.90;;;;;;5011071;28;20109;-55
2023/08/01 07:28:20;;;;;;;2.42;2.15;;;17.50;99.90;;;;;;5010786;28;20032;-54
2023/08/01 07:31:07;;;;;;;3.53;2.10;;;17.50;99.90;;;;;;4997063;28;20026;-58
2023/08/01 07:33:53;;;;;;;2.65;1.95;;;17.60;99.90;;;;;;5011305;28;20037;-58
2023/08/01 07:36:39;;;;;;;2.00;1.80;;;17.60;99.90;;;;;;5028771;28;20451;-57
2023/08/01 07:39:25;;;;;;;3.88;1.70;;;17.50;99.90;;;;;;5030664;28;20029;-56
2023/08/01 07:42:11;;;;;;;4.43;1.90;;;17.60;99.90;;;;;;5031061;28;20156;-55
2023/08/01 07:44:57;;;;;;;2.90;2.00;;;17.50;99.90;;;;;;5031419;28;20409;-52
2023/08/01 07:47:43;;;;;;;3.42;1.75;;;17.50;99.90;;;;;;5030500;28;20425;-55
2023/08/01 07:50:29;;;;;;;4.32;2.00;;;17.50;99.90;;;;;;5027321;28;20032;-56
2023/08/01 07:53:14;;;;;;;4.65;2.13;;;17.50;99.90;;;;;;5010336;28;20061;-51
2023/08/01 07:56:02;;;;;;;2.22;1.88;;;17.60;99.90;;;;;;5010498;28;20033;-52
2023/08/01 07:58:48;;;;;;;3.53;2.05;;;17.70;99.90;;;;;;5010442;28;20034;-53
2023/08/01 08:01:34;;;;;;;2.15;1.88;;;17.80;99.90;;;;;;5012082;28;20434;-56
2023/08/01 08:04:20;;;;;;;5.03;2.25;;;17.90;99.90;;;;;;5010662;28;20033;-56
2023/08/01 08:07:05;;;;;;;2.70;1.90;;;18.00;99.90;;;;;;5011156;28;20061;-50
2023/08/01 08:09:54;;;;;;;4.30;1.88;;;17.90;99.90;;;;;;5010849;28;20084;-51
2023/08/01 08:12:40;;;;;;;2.40;1.83;;;18.00;99.90;;;;;;5011133;28;20109;-53
2023/08/01 08:15:27;;;;;;;1.88;1.55;;;18.00;99.90;;;;;;5010560;28;20018;-56
2023/08/01 08:18:13;;;;;;;4.03;1.85;;;18.00;99.90;;;;;;5010404;28;20026;-55
2023/08/01 08:20:59;;;;;;;2.10;1.70;;;18.00;99.90;;;;;;5011094;28;20030;-52
2023/08/01 08:23:45;;;;;;;2.22;1.63;;;18.00;99.90;;;;;;5013462;28;20034;-54
2023/08/01 08:26:31;;;;;;;2.53;1.70;;;18.00;99.90;;;;;;5015067;28;20087;-55
2023/08/01 08:29:17;;;;;;;2.60;2.08;;;18.00;99.90;;;;;;5015032;28;20069;-56
2023/08/01 08:32:03;;;;;;;4.53;1.90;;;17.90;99.90;;;;;;5014933;28;20112;-56
2023/08/01 08:34:49;;;;;;;3.75;2.00;;;18.00;99.90;;;;;;5014141;28;20034;-55
2023/08/01 08:37:37;;;;;;;2.80;1.67;;;17.90;99.90;;;;;;5014397;28;20541;-55
2023/08/01 08:40:23;;;;;;;3.15;1.90;;;18.00;99.90;;;;;;5014129;28;20033;-52
2023/08/01 08:43:09;;;;;;;1.95;1.85;;;18.10;99.90;;;;;;5014703;28;20618;-55
2023/08/01 08:45:59;;;;;;;2.58;1.73;;;18.20;99.90;;;;;;5014721;28;20033;-55
2023/08/01 08:48:46;;;;;;;1.52;1.42;;;18.20;99.90;;;;;;5014878;28;20057;-55
2023/08/01 08:51:32;;;;;;;5.05;2.00;;;18.20;99.90;;;;;;5014652;28;20581;-54
2023/08/01 08:54:20;;;;;;;2.22;1.83;;;18.30;99.90;;;;;;5014890;28;20123;-55
2023/08/01 08:57:09;;;;;;;4.00;2.35;;;18.20;99.90;;;;;;5013670;28;20102;-54
2023/08/01 08:59:56;;;;;;;2.25;1.88;;;18.30;99.90;;;;;;5002059;28;20018;-53
2023/08/01 09:02:42;;;;;;;2.47;1.77;;;18.30;99.90;;;;;;5014428;28;20113;-55
2023/08/01 09:05:39;;;;;;;1.75;1.60;;;18.30;99.90;;;;;;5013927;28;20124;-56
2023/08/01 09:08:29;;;;;;;2.75;1.75;;;18.20;99.90;;;;;;5013895;28;20105;-56
2023/08/01 09:11:15;;;;;;;2.15;1.63;;;18.20;99.90;;;;;;5012958;28;20183;-55
2023/08/01 09:14:01;;;;;;;2.30;1.90;;;18.30;99.90;;;;;;5000243;28;20065;-54
2023/08/01 09:16:48;;;;;;;8.95;2.00;;;18.20;99.90;;;;;;5014014;28;20036;-54
2023/08/01 09:19:34;;;;;;;1.60;1.50;;;18.30;99.90;;;;;;5013349;28;20077;-52
2023/08/01 09:22:20;;;;;;;3.20;1.90;;;18.40;99.90;;;;;;5014201;28;20065;-56
2023/08/01 09:25:06;;;;;;;3.00;1.80;;;18.30;99.90;;;;;;5014142;28;20109;-53
2023/08/01 09:27:52;;;;;;;3.15;1.70;;;18.40;99.90;;;;;;5013798;28;20095;-56
2023/08/01 09:30:49;;;;;;;4.63;2.42;;;18.40;99.90;;;;;;5013182;28;20033;-56
2023/08/01 09:33:41;;;;;;;4.13;2.33;;;18.50;99.90;;;;;;5013513;28;20030;-57
2023/08/01 09:36:27;;;;;;;2.85;2.20;;;18.60;99.90;;;;;;5013192;28;20041;-50
2023/08/01 09:39:18;;;;;;;2.63;1.92;;;18.70;99.90;;;;;;5013679;28;20026;-55
2023/08/01 09:42:04;;;;;;;2.75;1.95;;;18.90;99.90;;;;;;5013786;28;20113;-53
2023/08/01 09:44:50;;;;;;;1.92;1.83;;;18.90;99.90;;;;;;4999724;28;20026;-54
2023/08/01 09:47:37;;;;;;;1.85;1.75;;;18.80;99.90;;;;;;5013309;28;20037;-53
2023/08/01 09:50:24;;;;;;;2.35;1.85;;;18.80;99.90;;;;;;5013581;28;20038;-55
2023/08/01 09:53:10;;;;;;;5.10;2.00;;;18.70;99.90;;;;;;4999511;28;20025;-53
2023/08/01 09:55:57;;;;;;;2.42;2.20;;;18.80;99.90;;;;;;5013387;28;20029;-51
2023/08/01 09:58:44;;;;;;;2.53;2.33;;;18.80;99.90;;;;;;5013204;28;20026;-52
2023/08/01 10:01:33;;;;;;;3.00;1.98;;;18.70;99.90;;;;;;5014190;28;20033;-53
2023/08/01 10:04:30;;;;;;;3.50;2.10;;;18.70;99.90;;;;;;5013002;28;20036;-53
2023/08/01 10:07:23;;;;;;;2.47;2.28;;;18.60;99.90;;;;;;5012916;28;20092;-54
2023/08/01 10:10:10;;;;;;;2.53;1.83;;;18.50;99.90;;;;;;5012393;28;20100;-55
2023/08/01 10:13:00;;;;;;;4.13;2.58;;;18.50;99.90;;;;;;5012992;28;20391;-49
2023/08/01 10:15:46;;;;;;;1.95;1.80;;;18.40;99.90;;;;;;5012713;28;20152;-53
2023/08/01 10:18:33;;;;;;;3.15;2.10;;;18.30;99.90;;;;;;5011904;28;20499;-55
2023/08/01 10:21:21;;;;;;;3.65;2.30;;;18.30;99.90;;;;;;5013211;28;20037;-53
2023/08/01 10:24:07;;;;;;;2.65;2.45;;;18.40;99.90;;;;;;5012377;28;20045;-57
2023/08/01 10:26:53;;;;;;;3.22;2.55;;;18.40;99.90;;;;;;5012037;28;20026;-56
2023/08/01 10:29:41;;;;;;;3.20;2.90;;;18.50;99.90;;;;;;5012970;28;20037;-52
2023/08/01 10:32:35;;;;;;;4.20;2.80;;;18.60;99.90;;;;;;5012645;28;20026;-55
2023/08/01 10:35:37;;;;;;;3.25;2.95;;;18.60;99.90;;;;;;5011898;28;20037;-54
2023/08/01 10:38:23;;;;;;;5.75;3.00;;;18.70;99.90;;;;;;5011236;28;20044;-51
2023/08/01 10:41:28;;;;;;;3.90;2.80;;;19.00;99.90;;;;;;5012640;28;20030;-55
2023/08/01 10:44:15;;;;;;;5.63;3.15;;;19.20;99.90;;;;;;5012676;28;20045;-55
2023/08/01 10:47:05;;;;;;;5.38;3.38;;;19.40;99.90;;;;;;5011452;28;20049;-52
2023/08/01 10:49:51;;;;;;;4.20;3.50;;;19.40;99.90;;;;;;5010815;28;20034;-55
2023/08/01 10:52:38;;;;;;;7.32;3.53;;;19.40;99.90;;;;;;5012374;28;20398;-55
2023/08/01 10:55:24;;;;;;;4.00;3.40;;;19.40;99.90;;;;;;4997288;28;20030;-55
2023/08/01 10:58:11;;;;;;;4.82;3.60;;;19.40;99.90;;;;;;5012526;28;20034;-53
2023/08/01 11:01:00;;;;;;;5.82;4.00;;;19.40;99.90;;;;;;5012236;28;20478;-54
2023/08/01 11:03:46;;;;;;;5.10;3.50;;;19.50;99.90;;;;;;4997023;28;20100;-56
2023/08/01 11:06:46;;;;;;;4.72;3.60;;;19.50;99.90;;;;;;5011830;28;20042;-54
2023/08/01 11:09:32;;;;;;;4.72;3.38;;;19.80;99.90;;;;;;5011512;28;20137;-53
2023/08/01 11:12:18;;;;;;;4.20;3.40;;;19.90;99.90;;;;;;5012353;28;20427;-54
2023/08/01 11:15:07;;;;;;;3.83;3.42;;;20.00;99.90;;;;;;5011583;28;20034;-55
2023/08/01 11:17:55;;;;;;;7.45;3.95;;;20.20;99.90;;;;;;5011458;28;20383;-54
2023/08/01 11:20:41;;;;;;;4.22;3.63;;;20.10;99.90;;;;;;5011239;28;20653;-52
2023/08/01 11:23:30;;;;;;;5.15;3.90;;;19.90;99.90;;;;;;5011234;28;20038;-56
2023/08/01 11:26:16;;;;;;;6.43;4.15;;;20.10;99.90;;;;;;5011030;28;20449;-54
2023/08/01 11:29:03;;;;;;;3.97;3.40;;;20.40;99.90;;;;;;5012233;28;20120;-54
2023/08/01 11:31:56;;;;;;;5.80;3.92;;;20.40;99.90;;;;;;5011194;28;20040;-52
2023/08/01 11:34:44;;;;;;;6.20;4.25;;;20.30;99.90;;;;;;5010589;28;20034;-52
2023/08/01 11:37:31;;;;;;;4.10;3.70;;;20.30;99.90;;;;;;5010649;28;20510;-53
2023/08/01 11:40:18;;;;;;;5.07;3.95;;;20.30;99.90;;;;;;5011093;28;20447;-56
2023/08/01 11:43:04;;;;;;;6.20;4.05;;;20.40;99.90;;;;;;5011052;28;20372;-53
2023/08/01 11:45:54;;;;;;;5.35;4.20;;;20.30;99.90;;;;;;5011116;28;20022;-55
2023/08/01 11:48:46;;;;;;;7.85;4.43;;;20.40;99.90;;;;;;5011318;28;20026;-56
2023/08/01 11:51:40;;;;;;;6.43;4.50;;;20.50;99.90;;;;;;5011240;28;20491;-54
2023/08/01 11:54:25;;;;;;;6.60;5.05;;;20.60;99.90;;;;;;5011227;28;20161;-54
2023/08/01 11:57:11;;;;;;;7.18;4.28;;;20.60;99.90;;;;;;5009797;28;20398;-55
2023/08/01 11:59:57;;;;;;;5.25;4.20;;;20.90;99.90;;;;;;5011297;28;20030;-53
2023/08/01 12:02:43;;;;;;;7.38;5.78;;;21.00;99.80;;;;;;5011325;28;20034;-56
2023/08/01 12:05:29;;;;;;;6.82;4.82;;;21.00;99.90;;;;;;5011324;28;20026;-53
2023/08/01 12:08:16;;;;;;;5.82;4.65;;;21.10;99.90;;;;;;5010877;28;20119;-55
2023/08/01 12:11:02;;;;;;;5.57;4.50;;;21.10;99.90;;;;;;5010781;28;20530;-52
2023/08/01 12:13:59;;;;;;;8.05;4.80;;;21.20;99.90;;;;;;5012087;28;20049;-54
2023/08/01 12:16:46;;;;;;;6.43;4.53;;;21.00;99.90;;;;;;5011234;28;20451;-54
2023/08/01 12:19:33;;;;;;;5.35;4.82;;;21.00;99.50;;;;;;5011596;28;20545;-53
2023/08/01 12:22:19;;;;;;;6.00;4.93;;;21.10;99.50;;;;;;5011502;28;20058;-56
2023/08/01 12:25:06;;;;;;;7.57;5.45;;;21.30;99.30;;;;;;5011462;28;20026;-56
2023/08/01 12:27:52;;;;;;;6.50;5.43;;;21.40;99.40;;;;;;5010281;28;20508;-55
2023/08/01 12:30:41;;;;;;;6.70;5.30;;;21.40;98.50;;;;;;5010856;28;20414;-53
2023/08/01 12:33:27;;;;;;;6.18;5.32;;;21.40;98.10;;;;;;4997564;28;20018;-55
2023/08/01 12:36:13;;;;;;;9.73;5.72;;;21.60;98.10;;;;;;5011101;28;20052;-52
2023/08/01 12:38:59;;;;;;;6.45;4.90;;;22.00;98.20;;;;;;5011151;28;20414;-52
2023/08/01 12:41:45;;;;;;;7.50;5.32;;;22.20;97.80;;;;;;5011374;28;20026;-54
2023/08/01 12:44:31;;;;;;;9.35;6.05;;;21.90;97.10;;;;;;5011133;28;20034;-53
2023/08/01 12:47:18;;;;;;;7.63;6.22;;;22.00;96.30;;;;;;5010958;28;20030;-55
2023/08/01 12:50:05;;;;;;;7.53;5.65;;;22.00;96.60;;;;;;5011163;28;20078;-53
2023/08/01 12:52:50;;;;;;;8.50;6.13;;;22.00;96.50;;;;;;5010577;28;20022;-52
2023/08/01 12:55:36;;;;;;;8.30;6.18;;;21.90;96.70;;;;;;5011390;28;20442;-56
2023/08/01 12:58:23;;;;;;;6.78;5.75;;;21.70;96.90;;;;;;5010972;28;20037;-52
2023/08/01 13:01:08;;;;;;;10.27;6.78;;;21.70;96.60;;;;;;5011589;28;20025;-57
2023/08/01 13:03:54;;;;;;;7.18;6.43;;;21.60;96.50;;;;;;5011313;28;20026;-51
2023/08/01 13:06:40;;;;;;;8.10;6.57;;;21.70;96.90;;;;;;5011043;28;20105;-53
2023/08/01 13:09:26;;;;;;;7.10;5.45;;;21.90;96.80;;;;;;5012788;28;20088;-50
2023/08/01 13:12:12;;;;;;;7.70;6.45;;;22.30;95.80;;;;;;5014877;28;20363;-52
2023/08/01 13:14:58;;;;;;;7.88;5.90;;;22.40;95.30;;;;;;5000656;28;20116;-52
2023/08/01 13:17:44;;;;;;;6.82;5.80;;;22.00;95.90;;;;;;5014343;28;20037;-50
2023/08/01 13:20:30;;;;;;;6.10;5.50;;;22.00;95.30;;;;;;5014502;28;20022;-52
2023/08/01 13:23:16;;;;;;;6.88;5.72;;;21.80;95.60;;;;;;5014487;28;20113;-53
2023/08/01 13:26:02;;;;;;;7.78;5.90;;;21.80;95.60;;;;;;5014476;28;20034;-54
2023/08/01 13:28:48;;;;;;;11.10;7.38;;;21.80;95.90;;;;;;5014091;28;20040;-53
2023/08/01 13:31:34;;;;;;;8.32;6.85;;;21.90;95.40;;;;;;5014865;28;20033;-53
2023/08/01 13:34:20;;;;;;;7.40;6.00;;;21.60;96.00;;;;;;5014583;28;20498;-55
2023/08/01 13:37:06;;;;;;;8.40;6.60;;;21.50;96.40;;;;;;5014386;28;20406;-56
2023/08/01 13:39:52;;;;;;;8.23;6.38;;;21.60;96.60;;;;;;5014715;28;20030;-55
2023/08/01 13:42:38;;;;;;;9.20;6.30;;;21.70;96.30;;;;;;5014237;28;20030;-55
2023/08/01 13:45:24;;;;;;;7.90;6.32;;;21.80;96.70;;;;;;5013076;28;20030;-54
2023/08/01 13:48:10;;;;;;;8.02;6.28;;;22.20;96.60;;;;;;5013733;28;20065;-56
2023/08/01 13:50:58;;;;;;;6.47;5.88;;;22.70;96.20;;;;;;5014123;28;20030;-52
2023/08/01 13:53:44;;;;;;;6.60;5.80;;;23.00;96.20;;;;;;5013472;28;20403;-55
2023/08/01 13:56:30;;;;;;;7.28;6.05;;;23.10;95.70;;;;;;5013616;28;20044;-53
2023/08/01 13:59:16;;;;;;;6.88;5.50;;;23.20;95.60;;;;;;4999601;28;20030;-54
2023/08/01 14:02:03;;;;;;;5.95;5.35;;;23.40;95.40;;;;;;5013891;28;20030;-53
2023/08/01 14:04:52;;;;;;;6.70;5.22;;;23.60;95.40;;;;;;5014045;28;20033;-56
2023/08/01 14:07:38;;;;;;;5.93;5.32;;;23.60;95.00;;;;;;5013464;28;20108;-55
2023/08/01 14:10:24;;;;;;;8.30;5.47;;;23.60;94.80;;;;;;5013851;28;20037;-55
2023/08/01 14:13:10;;;;;;;9.18;5.18;;;23.80;95.20;;;;;;4999696;28;20403;-52
2023/08/01 14:15:56;;;;;;;6.30;5.35;;;23.70;94.40;;;;;;5013880;28;20034;-55
2023/08/01 14:18:43;;;;;;;7.53;5.70;;;23.90;94.60;;;;;;5013521;28;20100;-49
2023/08/01 14:21:29;;;;;;;6.10;5.47;;;24.20;93.80;;;;;;5012657;28;20104;-56
2023/08/01 14:24:15;;;;;;;7.45;5.43;;;24.20;93.70;;;;;;5013702;28;20026;-55
2023/08/01 14:27:01;;;;;;;5.75;5.20;;;23.90;93.40;;;;;;5013320;28;20445;-54